sensor_id;sensor_type;location;lat;lon;timestamp;P1;durP1;ratioP1;P2;durP2;ratioP2
71395;SDS011;59888;55.814;37.132;2023-06-22T00:02:17;7.78;;;5.30;;
71395;SDS011;59888;55.814;37.132;2023-06-22T00:04:44;11.00;;;5.28;;
71395;SDS011;59888;55.814;37.132;2023-06-22T00:07:11;10.75;;;5.55;;
71395;SDS011;59888;55.814;37.132;2023-06-22T00:09:37;12.85;;;5.55;;
71395;SDS011;59888;55.814;37.132;2023-06-22T00:12:03;10.05;;;5.40;;
71395;SDS011;59888;55.814;37.132;2023-06-22T00:14:29;9.68;;;5.53;;
71395;SDS011;59888;55.814;37.132;2023-06-22T00:16:55;13.55;;;5.75;;
71395;SDS011;59888;55.814;37.132;2023-06-22T00:19:22;9.63;;;5.75;;
71395;SDS011;59888;55.814;37.132;2023-06-22T00:21:50;8.77;;;5.50;;
71395;SDS011;59888;55.814;37.132;2023-06-22T00:24:18;8.25;;;4.80;;
71395;SDS011;59888;55.814;37.132;2023-06-22T00:26:45;10.90;;;5.35;;
71395;SDS011;59888;55.814;37.132;2023-06-22T00:29:12;13.32;;;5.35;;
71395;SDS011;59888;55.814;37.132;2023-06-22T00:31:38;10.50;;;5.25;;
71395;SDS011;59888;55.814;37.132;2023-06-22T00:34:04;8.30;;;5.00;;
71395;SDS011;59888;55.814;37.132;2023-06-22T00:36:33;10.30;;;5.35;;
71395;SDS011;59888;55.814;37.132;2023-06-22T00:39:05;7.38;;;4.60;;
71395;SDS011;59888;55.814;37.132;2023-06-22T00:41:32;7.10;;;5.20;;
71395;SDS011;59888;55.814;37.132;2023-06-22T00:43:59;7.47;;;4.85;;
71395;SDS011;59888;55.814;37.132;2023-06-22T00:46:25;10.65;;;5.32;;
71395;SDS011;59888;55.814;37.132;2023-06-22T00:48:51;12.40;;;5.00;;
71395;SDS011;59888;55.814;37.132;2023-06-22T00:51:19;7.63;;;4.60;;
71395;SDS011;59888;55.814;37.132;2023-06-22T00:53:50;7.65;;;4.80;;
71395;SDS011;59888;55.814;37.132;2023-06-22T00:56:18;9.15;;;5.00;;
71395;SDS011;59888;55.814;37.132;2023-06-22T00:58:45;8.10;;;5.20;;
71395;SDS011;59888;55.814;37.132;2023-06-22T01:01:13;9.95;;;4.78;;
71395;SDS011;59888;55.814;37.132;2023-06-22T01:03:39;10.05;;;4.57;;
71395;SDS011;59888;55.814;37.132;2023-06-22T01:06:10;8.48;;;4.55;;
71395;SDS011;59888;55.814;37.132;2023-06-22T01:08:44;7.63;;;4.63;;
71395;SDS011;59888;55.814;37.132;2023-06-22T01:11:32;7.53;;;4.80;;
71395;SDS011;59888;55.814;37.132;2023-06-22T01:14:14;8.00;;;4.60;;
71395;SDS011;59888;55.814;37.132;2023-06-22T01:16:47;7.68;;;4.63;;
71395;SDS011;59888;55.814;37.132;2023-06-22T01:19:57;7.50;;;4.35;;
71395;SDS011;59888;55.814;37.132;2023-06-22T01:22:18;7.03;;;4.60;;
71395;SDS011;59888;55.814;37.132;2023-06-22T01:30:15;9.95;;;5.18;;
71395;SDS011;59888;55.814;37.132;2023-06-22T01:32:45;9.45;;;4.32;;
71395;SDS011;59888;55.814;37.132;2023-06-22T01:35:13;9.75;;;4.50;;
71395;SDS011;59888;55.814;37.132;2023-06-22T01:37:40;6.75;;;4.07;;
71395;SDS011;59888;55.814;37.132;2023-06-22T01:40:07;9.13;;;4.43;;
71395;SDS011;59888;55.814;37.132;2023-06-22T01:42:34;6.70;;;4.82;;
71395;SDS011;59888;55.814;37.132;2023-06-22T01:45:01;5.95;;;4.10;;
71395;SDS011;59888;55.814;37.132;2023-06-22T01:47:31;7.38;;;4.22;;
71395;SDS011;59888;55.814;37.132;2023-06-22T01:49:57;9.65;;;4.63;;
71395;SDS011;59888;55.814;37.132;2023-06-22T01:52:24;8.60;;;4.78;;
71395;SDS011;59888;55.814;37.132;2023-06-22T01:54:50;6.30;;;4.38;;
71395;SDS011;59888;55.814;37.132;2023-06-22T01:57:18;8.95;;;4.72;;
71395;SDS011;59888;55.814;37.132;2023-06-22T01:59:53;7.28;;;4.53;;
71395;SDS011;59888;55.814;37.132;2023-06-22T02:02:45;10.63;;;5.35;;
71395;SDS011;59888;55.814;37.132;2023-06-22T02:05:14;8.27;;;4.53;;
71395;SDS011;59888;55.814;37.132;2023-06-22T02:07:51;7.50;;;4.55;;
71395;SDS011;59888;55.814;37.132;2023-06-22T02:10:23;6.80;;;4.88;;
71395;SDS011;59888;55.814;37.132;2023-06-22T02:12:50;7.78;;;4.30;;
71395;SDS011;59888;55.814;37.132;2023-06-22T02:15:17;8.50;;;4.65;;
71395;SDS011;59888;55.814;37.132;2023-06-22T02:17:51;9.90;;;4.68;;
71395;SDS011;59888;55.814;37.132;2023-06-22T02:20:42;11.73;;;4.30;;
71395;SDS011;59888;55.814;37.132;2023-06-22T02:23:08;10.30;;;4.72;;
71395;SDS011;59888;55.814;37.132;2023-06-22T02:25:35;7.20;;;4.60;;
71395;SDS011;59888;55.814;37.132;2023-06-22T02:28:01;6.30;;;4.35;;
71395;SDS011;59888;55.814;37.132;2023-06-22T02:30:27;8.82;;;4.68;;
71395;SDS011;59888;55.814;37.132;2023-06-22T02:32:53;7.35;;;4.65;;
71395;SDS011;59888;55.814;37.132;2023-06-22T02:35:26;10.57;;;4.60;;
71395;SDS011;59888;55.814;37.132;2023-06-22T02:38:01;8.95;;;4.90;;
71395;SDS011;59888;55.814;37.132;2023-06-22T02:40:28;8.35;;;4.68;;
71395;SDS011;59888;55.814;37.132;2023-06-22T02:42:55;7.80;;;4.70;;
71395;SDS011;59888;55.814;37.132;2023-06-22T02:45:24;9.45;;;4.75;;
71395;SDS011;59888;55.814;37.132;2023-06-22T02:47:50;10.10;;;5.25;;
71395;SDS011;59888;55.814;37.132;2023-06-22T02:50:17;12.38;;;5.28;;
71395;SDS011;59888;55.814;37.132;2023-06-22T02:52:44;9.90;;;5.43;;
71395;SDS011;59888;55.814;37.132;2023-06-22T02:55:10;10.38;;;6.18;;
71395;SDS011;59888;55.814;37.132;2023-06-22T02:57:37;10.73;;;5.78;;
71395;SDS011;59888;55.814;37.132;2023-06-22T03:00:09;13.48;;;6.35;;
71395;SDS011;59888;55.814;37.132;2023-06-22T03:02:46;10.50;;;6.05;;
71395;SDS011;59888;55.814;37.132;2023-06-22T03:05:14;10.20;;;6.10;;
71395;SDS011;59888;55.814;37.132;2023-06-22T03:07:40;14.52;;;8.38;;
71395;SDS011;59888;55.814;37.132;2023-06-22T03:10:08;16.95;;;9.88;;
71395;SDS011;59888;55.814;37.132;2023-06-22T03:12:36;18.23;;;9.68;;
71395;SDS011;59888;55.814;37.132;2023-06-22T03:15:07;19.67;;;9.50;;
71395;SDS011;59888;55.814;37.132;2023-06-22T03:17:35;12.52;;;6.63;;
71395;SDS011;59888;55.814;37.132;2023-06-22T03:20:02;11.20;;;5.68;;
71395;SDS011;59888;55.814;37.132;2023-06-22T03:22:39;14.43;;;5.43;;
71395;SDS011;59888;55.814;37.132;2023-06-22T03:25:08;14.55;;;5.15;;
71395;SDS011;59888;55.814;37.132;2023-06-22T03:27:45;9.30;;;4.95;;
71395;SDS011;59888;55.814;37.132;2023-06-22T03:30:14;11.23;;;5.30;;
71395;SDS011;59888;55.814;37.132;2023-06-22T03:32:39;8.68;;;4.75;;
71395;SDS011;59888;55.814;37.132;2023-06-22T03:35:06;9.57;;;5.28;;
71395;SDS011;59888;55.814;37.132;2023-06-22T03:37:34;8.02;;;4.72;;
71395;SDS011;59888;55.814;37.132;2023-06-22T03:40:01;11.45;;;4.90;;
71395;SDS011;59888;55.814;37.132;2023-06-22T03:42:29;8.68;;;5.13;;
71395;SDS011;59888;55.814;37.132;2023-06-22T03:44:56;9.70;;;5.05;;
71395;SDS011;59888;55.814;37.132;2023-06-22T03:47:22;8.82;;;4.80;;
71395;SDS011;59888;55.814;37.132;2023-06-22T03:49:48;8.07;;;4.90;;
71395;SDS011;59888;55.814;37.132;2023-06-22T03:52:15;11.05;;;5.30;;
71395;SDS011;59888;55.814;37.132;2023-06-22T03:54:41;10.25;;;5.05;;
71395;SDS011;59888;55.814;37.132;2023-06-22T03:57:06;8.30;;;4.70;;
71395;SDS011;59888;55.814;37.132;2023-06-22T03:59:43;8.63;;;4.80;;
71395;SDS011;59888;55.814;37.132;2023-06-22T04:02:09;11.07;;;5.05;;
71395;SDS011;59888;55.814;37.132;2023-06-22T04:04:35;7.57;;;4.50;;
71395;SDS011;59888;55.814;37.132;2023-06-22T04:07:01;8.32;;;4.75;;
71395;SDS011;59888;55.814;37.132;2023-06-22T04:09:37;9.18;;;4.97;;
71395;SDS011;59888;55.814;37.132;2023-06-22T04:12:05;8.90;;;4.75;;
71395;SDS011;59888;55.814;37.132;2023-06-22T04:14:31;8.65;;;4.47;;
71395;SDS011;59888;55.814;37.132;2023-06-22T04:16:58;11.20;;;4.75;;
71395;SDS011;59888;55.814;37.132;2023-06-22T04:19:34;8.27;;;4.68;;
71395;SDS011;59888;55.814;37.132;2023-06-22T04:22:00;8.68;;;4.72;;
71395;SDS011;59888;55.814;37.132;2023-06-22T04:24:28;7.55;;;4.47;;
71395;SDS011;59888;55.814;37.132;2023-06-22T04:26:54;7.50;;;4.55;;
71395;SDS011;59888;55.814;37.132;2023-06-22T04:29:20;7.70;;;4.65;;
71395;SDS011;59888;55.814;37.132;2023-06-22T04:31:54;7.70;;;4.60;;
71395;SDS011;59888;55.814;37.132;2023-06-22T04:34:22;9.48;;;4.57;;
71395;SDS011;59888;55.814;37.132;2023-06-22T04:36:49;7.75;;;4.80;;
71395;SDS011;59888;55.814;37.132;2023-06-22T04:39:25;5.93;;;3.83;;
71395;SDS011;59888;55.814;37.132;2023-06-22T04:41:52;7.90;;;4.88;;
71395;SDS011;59888;55.814;37.132;2023-06-22T04:44:18;9.63;;;4.40;;
71395;SDS011;59888;55.814;37.132;2023-06-22T04:46:51;8.27;;;4.38;;
71395;SDS011;59888;55.814;37.132;2023-06-22T04:49:19;6.85;;;4.57;;
71395;SDS011;59888;55.814;37.132;2023-06-22T04:51:46;5.95;;;4.35;;
71395;SDS011;59888;55.814;37.132;2023-06-22T04:54:12;7.85;;;4.22;;
71395;SDS011;59888;55.814;37.132;2023-06-22T04:56:39;11.30;;;4.63;;
71395;SDS011;59888;55.814;37.132;2023-06-22T04:59:06;6.63;;;4.15;;
71395;SDS011;59888;55.814;37.132;2023-06-22T05:01:34;9.10;;;4.05;;
71395;SDS011;59888;55.814;37.132;2023-06-22T05:04:00;4.82;;;3.75;;
71395;SDS011;59888;55.814;37.132;2023-06-22T05:06:26;7.03;;;4.13;;
71395;SDS011;59888;55.814;37.132;2023-06-22T05:08:53;6.15;;;3.90;;
71395;SDS011;59888;55.814;37.132;2023-06-22T05:11:25;9.27;;;4.20;;
71395;SDS011;59888;55.814;37.132;2023-06-22T05:13:51;7.20;;;3.78;;
71395;SDS011;59888;55.814;37.132;2023-06-22T05:16:17;9.25;;;4.50;;
71395;SDS011;59888;55.814;37.132;2023-06-22T05:18:52;6.28;;;3.90;;
71395;SDS011;59888;55.814;37.132;2023-06-22T05:21:22;6.25;;;4.20;;
71395;SDS011;59888;55.814;37.132;2023-06-22T05:23:50;7.78;;;4.28;;
71395;SDS011;59888;55.814;37.132;2023-06-22T05:26:16;6.20;;;3.83;;
71395;SDS011;59888;55.814;37.132;2023-06-22T05:28:43;6.60;;;3.70;;
71395;SDS011;59888;55.814;37.132;2023-06-22T05:31:16;8.73;;;3.58;;
71395;SDS011;59888;55.814;37.132;2023-06-22T05:33:45;8.70;;;3.58;;
71395;SDS011;59888;55.814;37.132;2023-06-22T05:36:12;8.55;;;3.55;;
71395;SDS011;59888;55.814;37.132;2023-06-22T05:38:49;7.07;;;4.00;;
71395;SDS011;59888;55.814;37.132;2023-06-22T05:41:18;6.72;;;3.50;;
71395;SDS011;59888;55.814;37.132;2023-06-22T05:43:50;7.15;;;3.13;;
71395;SDS011;59888;55.814;37.132;2023-06-22T05:46:19;7.82;;;3.25;;
71395;SDS011;59888;55.814;37.132;2023-06-22T05:48:45;5.65;;;3.00;;
71395;SDS011;59888;55.814;37.132;2023-06-22T05:51:11;7.05;;;3.00;;
71395;SDS011;59888;55.814;37.132;2023-06-22T05:53:39;6.97;;;2.90;;
71395;SDS011;59888;55.814;37.132;2023-06-22T05:56:05;4.72;;;2.90;;
71395;SDS011;59888;55.814;37.132;2023-06-22T05:58:42;5.07;;;2.85;;
71395;SDS011;59888;55.814;37.132;2023-06-22T06:01:08;5.15;;;2.88;;
71395;SDS011;59888;55.814;37.132;2023-06-22T06:03:34;4.75;;;2.97;;
71395;SDS011;59888;55.814;37.132;2023-06-22T06:06:07;5.70;;;2.95;;
71395;SDS011;59888;55.814;37.132;2023-06-22T06:08:38;4.07;;;2.97;;
71395;SDS011;59888;55.814;37.132;2023-06-22T06:11:05;5.53;;;2.95;;
71395;SDS011;59888;55.814;37.132;2023-06-22T06:13:31;4.25;;;2.78;;
71395;SDS011;59888;55.814;37.132;2023-06-22T06:15:57;4.38;;;2.90;;
71395;SDS011;59888;55.814;37.132;2023-06-22T06:18:29;5.78;;;3.17;;
71395;SDS011;59888;55.814;37.132;2023-06-22T06:20:55;6.70;;;3.00;;
71395;SDS011;59888;55.814;37.132;2023-06-22T06:23:21;5.63;;;3.20;;
71395;SDS011;59888;55.814;37.132;2023-06-22T06:25:47;4.95;;;3.25;;
71395;SDS011;59888;55.814;37.132;2023-06-22T06:28:18;5.68;;;3.13;;
71395;SDS011;59888;55.814;37.132;2023-06-22T06:30:44;4.55;;;2.67;;
71395;SDS011;59888;55.814;37.132;2023-06-22T06:33:12;5.78;;;2.75;;
71395;SDS011;59888;55.814;37.132;2023-06-22T06:35:38;4.53;;;2.72;;
71395;SDS011;59888;55.814;37.132;2023-06-22T06:38:04;6.53;;;2.85;;
71395;SDS011;59888;55.814;37.132;2023-06-22T06:40:30;5.25;;;2.75;;
71395;SDS011;59888;55.814;37.132;2023-06-22T06:42:56;6.22;;;2.53;;
71395;SDS011;59888;55.814;37.132;2023-06-22T06:45:23;6.18;;;2.42;;
71395;SDS011;59888;55.814;37.132;2023-06-22T06:47:51;5.65;;;2.58;;
71395;SDS011;59888;55.814;37.132;2023-06-22T06:50:17;4.45;;;2.72;;
71395;SDS011;59888;55.814;37.132;2023-06-22T06:52:46;6.15;;;2.97;;
71395;SDS011;59888;55.814;37.132;2023-06-22T06:55:20;5.68;;;2.67;;
71395;SDS011;59888;55.814;37.132;2023-06-22T06:57:49;6.03;;;2.42;;
71395;SDS011;59888;55.814;37.132;2023-06-22T07:00:16;4.72;;;2.80;;
71395;SDS011;59888;55.814;37.132;2023-06-22T07:02:43;6.13;;;2.67;;
71395;SDS011;59888;55.814;37.132;2023-06-22T07:05:10;6.57;;;2.97;;
71395;SDS011;59888;55.814;37.132;2023-06-22T07:07:37;5.80;;;2.72;;
71395;SDS011;59888;55.814;37.132;2023-06-22T07:10:04;4.80;;;2.88;;
71395;SDS011;59888;55.814;37.132;2023-06-22T07:12:37;8.02;;;3.10;;
71395;SDS011;59888;55.814;37.132;2023-06-22T07:15:04;5.18;;;2.65;;
71395;SDS011;59888;55.814;37.132;2023-06-22T07:17:33;4.60;;;3.15;;
71395;SDS011;59888;55.814;37.132;2023-06-22T07:20:00;3.95;;;2.60;;
71395;SDS011;59888;55.814;37.132;2023-06-22T07:22:28;4.68;;;2.70;;
71395;SDS011;59888;55.814;37.132;2023-06-22T07:24:54;7.43;;;2.90;;
71395;SDS011;59888;55.814;37.132;2023-06-22T07:27:22;5.03;;;2.58;;
71395;SDS011;59888;55.814;37.132;2023-06-22T07:29:48;5.75;;;2.80;;
71395;SDS011;59888;55.814;37.132;2023-06-22T07:32:13;4.55;;;2.60;;
71395;SDS011;59888;55.814;37.132;2023-06-22T07:34:40;4.30;;;3.10;;
71395;SDS011;59888;55.814;37.132;2023-06-22T07:37:06;8.85;;;3.03;;
71395;SDS011;59888;55.814;37.132;2023-06-22T07:39:39;5.38;;;2.88;;
71395;SDS011;59888;55.814;37.132;2023-06-22T07:42:08;6.40;;;2.70;;
71395;SDS011;59888;55.814;37.132;2023-06-22T07:44:34;3.88;;;2.30;;
71395;SDS011;59888;55.814;37.132;2023-06-22T07:47:00;4.20;;;2.88;;
71395;SDS011;59888;55.814;37.132;2023-06-22T07:49:27;4.00;;;2.70;;
71395;SDS011;59888;55.814;37.132;2023-06-22T07:51:54;4.53;;;2.80;;
71395;SDS011;59888;55.814;37.132;2023-06-22T07:54:19;4.68;;;2.67;;
71395;SDS011;59888;55.814;37.132;2023-06-22T07:56:46;4.65;;;2.85;;
71395;SDS011;59888;55.814;37.132;2023-06-22T07:59:12;6.18;;;2.90;;
71395;SDS011;59888;55.814;37.132;2023-06-22T08:01:38;4.18;;;3.00;;
71395;SDS011;59888;55.814;37.132;2023-06-22T08:04:04;5.97;;;3.20;;
71395;SDS011;59888;55.814;37.132;2023-06-22T08:06:31;6.00;;;3.13;;
71395;SDS011;59888;55.814;37.132;2023-06-22T08:08:57;4.60;;;2.58;;
71395;SDS011;59888;55.814;37.132;2023-06-22T08:11:24;6.03;;;3.05;;
71395;SDS011;59888;55.814;37.132;2023-06-22T08:13:51;4.80;;;3.03;;
71395;SDS011;59888;55.814;37.132;2023-06-22T08:16:17;7.85;;;3.17;;
71395;SDS011;59888;55.814;37.132;2023-06-22T08:18:43;4.78;;;3.00;;
71395;SDS011;59888;55.814;37.132;2023-06-22T08:21:09;4.40;;;2.97;;
71395;SDS011;59888;55.814;37.132;2023-06-22T08:23:36;4.60;;;3.00;;
71395;SDS011;59888;55.814;37.132;2023-06-22T08:26:02;4.38;;;3.00;;
71395;SDS011;59888;55.814;37.132;2023-06-22T08:28:28;5.80;;;3.42;;
71395;SDS011;59888;55.814;37.132;2023-06-22T08:30:54;6.78;;;3.47;;
71395;SDS011;59888;55.814;37.132;2023-06-22T08:33:21;4.65;;;2.90;;
71395;SDS011;59888;55.814;37.132;2023-06-22T08:35:57;5.38;;;2.92;;
71395;SDS011;59888;55.814;37.132;2023-06-22T08:38:24;7.13;;;3.22;;
71395;SDS011;59888;55.814;37.132;2023-06-22T08:40:50;6.70;;;3.08;;
71395;SDS011;59888;55.814;37.132;2023-06-22T08:43:16;6.70;;;3.38;;
71395;SDS011;59888;55.814;37.132;2023-06-22T08:45:43;4.57;;;2.80;;
71395;SDS011;59888;55.814;37.132;2023-06-22T08:48:09;5.50;;;3.10;;
71395;SDS011;59888;55.814;37.132;2023-06-22T08:50:35;6.28;;;3.30;;
71395;SDS011;59888;55.814;37.132;2023-06-22T08:53:00;7.05;;;2.90;;
71395;SDS011;59888;55.814;37.132;2023-06-22T08:55:26;9.52;;;3.13;;
71395;SDS011;59888;55.814;37.132;2023-06-22T08:57:52;10.63;;;3.50;;
71395;SDS011;59888;55.814;37.132;2023-06-22T09:00:18;4.78;;;3.40;;
71395;SDS011;59888;55.814;37.132;2023-06-22T09:02:45;5.32;;;3.15;;
71395;SDS011;59888;55.814;37.132;2023-06-22T09:05:13;4.53;;;2.95;;
71395;SDS011;59888;55.814;37.132;2023-06-22T09:07:39;5.97;;;3.20;;
71395;SDS011;59888;55.814;37.132;2023-06-22T09:10:05;4.32;;;2.90;;
71395;SDS011;59888;55.814;37.132;2023-06-22T09:12:32;6.45;;;3.00;;
71395;SDS011;59888;55.814;37.132;2023-06-22T09:14:59;6.82;;;3.45;;
71395;SDS011;59888;55.814;37.132;2023-06-22T09:17:26;6.97;;;2.83;;
71395;SDS011;59888;55.814;37.132;2023-06-22T09:19:52;5.43;;;3.00;;
71395;SDS011;59888;55.814;37.132;2023-06-22T09:22:19;4.05;;;3.22;;
71395;SDS011;59888;55.814;37.132;2023-06-22T09:24:45;5.43;;;3.30;;
71395;SDS011;59888;55.814;37.132;2023-06-22T09:27:10;6.25;;;3.20;;
71395;SDS011;59888;55.814;37.132;2023-06-22T09:29:36;4.35;;;3.05;;
71395;SDS011;59888;55.814;37.132;2023-06-22T09:32:02;4.78;;;3.30;;
71395;SDS011;59888;55.814;37.132;2023-06-22T09:34:28;4.20;;;2.95;;
71395;SDS011;59888;55.814;37.132;2023-06-22T09:36:56;4.38;;;3.20;;
71395;SDS011;59888;55.814;37.132;2023-06-22T09:39:30;5.90;;;3.42;;
71395;SDS011;59888;55.814;37.132;2023-06-22T09:41:59;5.38;;;3.42;;
71395;SDS011;59888;55.814;37.132;2023-06-22T09:44:26;5.25;;;3.10;;
71395;SDS011;59888;55.814;37.132;2023-06-22T09:46:51;4.63;;;2.90;;
71395;SDS011;59888;55.814;37.132;2023-06-22T09:49:19;7.63;;;3.33;;
71395;SDS011;59888;55.814;37.132;2023-06-22T09:51:46;8.02;;;3.60;;
71395;SDS011;59888;55.814;37.132;2023-06-22T09:54:12;5.68;;;3.10;;
71395;SDS011;59888;55.814;37.132;2023-06-22T09:56:38;5.75;;;3.30;;
71395;SDS011;59888;55.814;37.132;2023-06-22T09:59:04;5.78;;;3.10;;
71395;SDS011;59888;55.814;37.132;2023-06-22T10:01:30;4.43;;;3.17;;
71395;SDS011;59888;55.814;37.132;2023-06-22T10:03:56;7.13;;;3.80;;
71395;SDS011;59888;55.814;37.132;2023-06-22T10:06:22;5.07;;;3.45;;
71395;SDS011;59888;55.814;37.132;2023-06-22T10:08:50;4.82;;;3.40;;
71395;SDS011;59888;55.814;37.132;2023-06-22T10:11:17;6.28;;;3.22;;
71395;SDS011;59888;55.814;37.132;2023-06-22T10:13:43;4.65;;;3.35;;
71395;SDS011;59888;55.814;37.132;2023-06-22T10:16:09;6.38;;;3.20;;
71395;SDS011;59888;55.814;37.132;2023-06-22T10:18:40;5.40;;;3.35;;
71395;SDS011;59888;55.814;37.132;2023-06-22T10:21:06;5.28;;;3.42;;
71395;SDS011;59888;55.814;37.132;2023-06-22T10:23:32;5.25;;;3.20;;
71395;SDS011;59888;55.814;37.132;2023-06-22T10:25:58;8.15;;;3.40;;
71395;SDS011;59888;55.814;37.132;2023-06-22T10:28:24;5.28;;;3.47;;
71395;SDS011;59888;55.814;37.132;2023-06-22T10:30:50;6.45;;;3.50;;
71395;SDS011;59888;55.814;37.132;2023-06-22T10:33:16;4.65;;;3.33;;
71395;SDS011;59888;55.814;37.132;2023-06-22T10:35:42;4.97;;;3.30;;
71395;SDS011;59888;55.814;37.132;2023-06-22T10:38:08;5.95;;;3.60;;
71395;SDS011;59888;55.814;37.132;2023-06-22T10:40:34;5.88;;;3.72;;
71395;SDS011;59888;55.814;37.132;2023-06-22T10:43:00;7.47;;;3.60;;
71395;SDS011;59888;55.814;37.132;2023-06-22T10:45:26;7.60;;;3.30;;
71395;SDS011;59888;55.814;37.132;2023-06-22T10:47:53;4.72;;;3.40;;
71395;SDS011;59888;55.814;37.132;2023-06-22T10:50:19;4.85;;;3.22;;
71395;SDS011;59888;55.814;37.132;2023-06-22T10:52:45;5.57;;;3.50;;
71395;SDS011;59888;55.814;37.132;2023-06-22T10:55:12;7.30;;;3.40;;
71395;SDS011;59888;55.814;37.132;2023-06-22T10:57:38;4.68;;;3.20;;
71395;SDS011;59888;55.814;37.132;2023-06-22T11:00:07;5.60;;;3.55;;
71395;SDS011;59888;55.814;37.132;2023-06-22T11:02:34;5.53;;;3.13;;
71395;SDS011;59888;55.814;37.132;2023-06-22T11:05:00;6.80;;;3.65;;
71395;SDS011;59888;55.814;37.132;2023-06-22T11:07:26;7.28;;;3.38;;
71395;SDS011;59888;55.814;37.132;2023-06-22T11:10:00;6.05;;;3.47;;
71395;SDS011;59888;55.814;37.132;2023-06-22T11:12:26;5.80;;;3.53;;
71395;SDS011;59888;55.814;37.132;2023-06-22T11:14:52;5.53;;;3.00;;
71395;SDS011;59888;55.814;37.132;2023-06-22T11:17:18;6.35;;;3.38;;
71395;SDS011;59888;55.814;37.132;2023-06-22T11:19:44;5.13;;;3.33;;
71395;SDS011;59888;55.814;37.132;2023-06-22T11:22:10;8.02;;;3.47;;
71395;SDS011;59888;55.814;37.132;2023-06-22T11:24:36;5.38;;;3.17;;
71395;SDS011;59888;55.814;37.132;2023-06-22T11:27:02;7.28;;;3.03;;
71395;SDS011;59888;55.814;37.132;2023-06-22T11:29:33;4.90;;;3.30;;
71395;SDS011;59888;55.814;37.132;2023-06-22T11:31:59;5.00;;;3.08;;
71395;SDS011;59888;55.814;37.132;2023-06-22T11:34:25;6.07;;;3.05;;
71395;SDS011;59888;55.814;37.132;2023-06-22T11:36:51;5.05;;;3.10;;
71395;SDS011;59888;55.814;37.132;2023-06-22T11:39:20;4.45;;;3.15;;
71395;SDS011;59888;55.814;37.132;2023-06-22T11:41:58;8.68;;;3.55;;
71395;SDS011;59888;55.814;37.132;2023-06-22T11:45:42;4.95;;;3.25;;
71395;SDS011;59888;55.814;37.132;2023-06-22T11:55:52;6.50;;;3.25;;
71395;SDS011;59888;55.814;37.132;2023-06-22T11:58:28;6.22;;;3.35;;
71395;SDS011;59888;55.814;37.132;2023-06-22T12:01:03;5.78;;;3.47;;
71395;SDS011;59888;55.814;37.132;2023-06-22T12:06:45;4.40;;;2.92;;
71395;SDS011;59888;55.814;37.132;2023-06-22T12:09:12;5.68;;;3.30;;
71395;SDS011;59888;55.814;37.132;2023-06-22T12:11:39;5.40;;;3.15;;
71395;SDS011;59888;55.814;37.132;2023-06-22T12:14:05;5.18;;;3.30;;
71395;SDS011;59888;55.814;37.132;2023-06-22T12:16:31;4.20;;;3.20;;
71395;SDS011;59888;55.814;37.132;2023-06-22T12:18:56;4.93;;;3.33;;
71395;SDS011;59888;55.814;37.132;2023-06-22T12:21:23;4.50;;;3.55;;
71395;SDS011;59888;55.814;37.132;2023-06-22T12:23:49;4.60;;;3.15;;
71395;SDS011;59888;55.814;37.132;2023-06-22T12:26:15;6.93;;;3.60;;
71395;SDS011;59888;55.814;37.132;2023-06-22T12:28:42;4.78;;;3.33;;
71395;SDS011;59888;55.814;37.132;2023-06-22T12:31:08;6.20;;;3.35;;
71395;SDS011;59888;55.814;37.132;2023-06-22T12:33:34;7.72;;;3.35;;
71395;SDS011;59888;55.814;37.132;2023-06-22T12:36:00;8.02;;;3.30;;
71395;SDS011;59888;55.814;37.132;2023-06-22T12:38:26;5.30;;;3.55;;
71395;SDS011;59888;55.814;37.132;2023-06-22T12:40:52;6.45;;;4.28;;
71395;SDS011;59888;55.814;37.132;2023-06-22T12:43:18;5.95;;;4.18;;
71395;SDS011;59888;55.814;37.132;2023-06-22T12:45:44;4.95;;;3.45;;
71395;SDS011;59888;55.814;37.132;2023-06-22T12:48:15;5.72;;;3.42;;
71395;SDS011;59888;55.814;37.132;2023-06-22T12:50:42;4.03;;;3.15;;
71395;SDS011;59888;55.814;37.132;2023-06-22T12:53:08;4.72;;;3.38;;
71395;SDS011;59888;55.814;37.132;2023-06-22T12:55:34;6.05;;;3.42;;
71395;SDS011;59888;55.814;37.132;2023-06-22T12:58:00;6.53;;;3.70;;
71395;SDS011;59888;55.814;37.132;2023-06-22T13:00:26;8.02;;;4.20;;
71395;SDS011;59888;55.814;37.132;2023-06-22T13:02:52;4.80;;;3.17;;
71395;SDS011;59888;55.814;37.132;2023-06-22T13:05:18;4.75;;;3.45;;
71395;SDS011;59888;55.814;37.132;2023-06-22T13:07:45;6.43;;;3.45;;
71395;SDS011;59888;55.814;37.132;2023-06-22T13:10:11;7.20;;;3.30;;
71395;SDS011;59888;55.814;37.132;2023-06-22T13:12:36;6.65;;;3.70;;
71395;SDS011;59888;55.814;37.132;2023-06-22T13:15:03;5.30;;;3.75;;
71395;SDS011;59888;55.814;37.132;2023-06-22T13:17:30;4.72;;;3.75;;
71395;SDS011;59888;55.814;37.132;2023-06-22T13:20:00;5.05;;;3.58;;
71395;SDS011;59888;55.814;37.132;2023-06-22T13:22:28;4.60;;;3.15;;
71395;SDS011;59888;55.814;37.132;2023-06-22T13:24:58;5.47;;;3.60;;
71395;SDS011;59888;55.814;37.132;2023-06-22T13:27:25;5.03;;;3.38;;
71395;SDS011;59888;55.814;37.132;2023-06-22T13:29:56;5.22;;;3.60;;
71395;SDS011;59888;55.814;37.132;2023-06-22T13:32:22;4.45;;;3.40;;
71395;SDS011;59888;55.814;37.132;2023-06-22T13:34:48;5.88;;;3.33;;
71395;SDS011;59888;55.814;37.132;2023-06-22T13:37:14;4.55;;;3.55;;
71395;SDS011;59888;55.814;37.132;2023-06-22T13:39:40;4.13;;;3.15;;
71395;SDS011;59888;55.814;37.132;2023-06-22T13:42:07;4.10;;;3.28;;
71395;SDS011;59888;55.814;37.132;2023-06-22T13:44:34;4.25;;;3.35;;
71395;SDS011;59888;55.814;37.132;2023-06-22T13:47:00;4.55;;;3.45;;
71395;SDS011;59888;55.814;37.132;2023-06-22T13:49:27;4.47;;;3.10;;
71395;SDS011;59888;55.814;37.132;2023-06-22T13:51:53;3.53;;;3.15;;
71395;SDS011;59888;55.814;37.132;2023-06-22T13:54:19;5.28;;;3.13;;
71395;SDS011;59888;55.814;37.132;2023-06-22T13:56:45;4.93;;;3.53;;
71395;SDS011;59888;55.814;37.132;2023-06-22T13:59:13;4.80;;;3.30;;
71395;SDS011;59888;55.814;37.132;2023-06-22T14:01:39;5.70;;;3.63;;
71395;SDS011;59888;55.814;37.132;2023-06-22T14:04:06;4.05;;;3.25;;
71395;SDS011;59888;55.814;37.132;2023-06-22T14:06:32;5.93;;;3.50;;
71395;SDS011;59888;55.814;37.132;2023-06-22T14:08:58;4.07;;;3.38;;
71395;SDS011;59888;55.814;37.132;2023-06-22T14:11:24;3.97;;;3.33;;
71395;SDS011;59888;55.814;37.132;2023-06-22T14:13:50;4.45;;;3.10;;
71395;SDS011;59888;55.814;37.132;2023-06-22T14:16:17;4.38;;;3.20;;
71395;SDS011;59888;55.814;37.132;2023-06-22T14:18:44;6.70;;;3.45;;
71395;SDS011;59888;55.814;37.132;2023-06-22T14:21:10;4.28;;;3.28;;
71395;SDS011;59888;55.814;37.132;2023-06-22T14:23:36;5.10;;;3.13;;
71395;SDS011;59888;55.814;37.132;2023-06-22T14:26:03;4.45;;;3.40;;
71395;SDS011;59888;55.814;37.132;2023-06-22T14:28:40;5.22;;;3.53;;
71395;SDS011;59888;55.814;37.132;2023-06-22T14:31:09;4.32;;;3.40;;
71395;SDS011;59888;55.814;37.132;2023-06-22T14:33:34;4.20;;;3.10;;
71395;SDS011;59888;55.814;37.132;2023-06-22T14:36:00;11.88;;;3.75;;
71395;SDS011;59888;55.814;37.132;2023-06-22T14:38:27;4.45;;;3.33;;
71395;SDS011;59888;55.814;37.132;2023-06-22T14:40:53;6.00;;;3.67;;
71395;SDS011;59888;55.814;37.132;2023-06-22T14:43:19;4.38;;;3.28;;
71395;SDS011;59888;55.814;37.132;2023-06-22T14:45:45;5.10;;;3.60;;
71395;SDS011;59888;55.814;37.132;2023-06-22T14:48:16;5.85;;;4.07;;
71395;SDS011;59888;55.814;37.132;2023-06-22T14:50:42;4.40;;;3.42;;
71395;SDS011;59888;55.814;37.132;2023-06-22T14:53:08;5.22;;;3.40;;
71395;SDS011;59888;55.814;37.132;2023-06-22T14:55:34;5.45;;;3.67;;